sensor_id;sensor_type;location;lat;lon;timestamp;temperature;humidity
7399;DHT22;3740;50.700;7.184;2022-08-19T00:00:34;20.10;99.90
7399;DHT22;3740;50.700;7.184;2022-08-19T00:03:09;20.10;99.90
7399;DHT22;3740;50.700;7.184;2022-08-19T00:05:36;20.10;99.90
7399;DHT22;3740;50.700;7.184;2022-08-19T00:08:02;20.10;99.90
7399;DHT22;3740;50.700;7.184;2022-08-19T00:10:28;20.00;99.90
7399;DHT22;3740;50.700;7.184;2022-08-19T00:12:54;20.00;99.90
7399;DHT22;3740;50.700;7.184;2022-08-19T00:15:20;20.00;99.90
7399;DHT22;3740;50.700;7.184;2022-08-19T00:17:51;20.00;99.90
7399;DHT22;3740;50.700;7.184;2022-08-19T00:20:20;20.00;99.90
7399;DHT22;3740;50.700;7.184;2022-08-19T00:22:46;19.90;99.90
7399;DHT22;3740;50.700;7.184;2022-08-19T00:25:13;19.90;99.90
7399;DHT22;3740;50.700;7.184;2022-08-19T00:27:40;19.90;99.90
7399;DHT22;3740;50.700;7.184;2022-08-19T00:30:06;19.90;99.90
7399;DHT22;3740;50.700;7.184;2022-08-19T00:32:33;19.80;99.90
7399;DHT22;3740;50.700;7.184;2022-08-19T00:34:59;19.80;99.90
7399;DHT22;3740;50.700;7.184;2022-08-19T00:37:25;19.80;99.90
7399;DHT22;3740;50.700;7.184;2022-08-19T00:39:52;19.80;99.90
7399;DHT22;3740;50.700;7.184;2022-08-19T00:42:20;19.80;99.90
7399;DHT22;3740;50.700;7.184;2022-08-19T00:44:46;19.80;99.90
7399;DHT22;3740;50.700;7.184;2022-08-19T00:47:12;19.80;99.90
7399;DHT22;3740;50.700;7.184;2022-08-19T00:49:45;19.80;99.90
7399;DHT22;3740;50.700;7.184;2022-08-19T00:52:34;19.80;99.90
7399;DHT22;3740;50.700;7.184;2022-08-19T00:55:05;19.70;99.90
7399;DHT22;3740;50.700;7.184;2022-08-19T00:57:38;19.70;99.90
7399;DHT22;3740;50.700;7.184;2022-08-19T01:00:12;19.70;99.90
7399;DHT22;3740;50.700;7.184;2022-08-19T01:02:39;19.70;99.90
7399;DHT22;3740;50.700;7.184;2022-08-19T01:05:08;19.70;99.90
7399;DHT22;3740;50.700;7.184;2022-08-19T01:07:37;19.70;99.90
7399;DHT22;3740;50.700;7.184;2022-08-19T01:10:07;19.70;99.90
7399;DHT22;3740;50.700;7.184;2022-08-19T01:12:33;19.70;99.90
7399;DHT22;3740;50.700;7.184;2022-08-19T01:14:59;19.60;99.90
7399;DHT22;3740;50.700;7.184;2022-08-19T01:17:25;19.60;99.90
7399;DHT22;3740;50.700;7.184;2022-08-19T01:19:51;19.60;99.90
7399;DHT22;3740;50.700;7.184;2022-08-19T01:24:49;19.60;99.90
7399;DHT22;3740;50.700;7.184;2022-08-19T01:27:15;19.60;99.90
7399;DHT22;3740;50.700;7.184;2022-08-19T01:29:43;19.60;99.90
7399;DHT22;3740;50.700;7.184;2022-08-19T01:32:13;19.50;99.90
7399;DHT22;3740;50.700;7.184;2022-08-19T01:34:40;19.50;99.90
7399;DHT22;3740;50.700;7.184;2022-08-19T01:37:08;19.50;99.90
7399;DHT22;3740;50.700;7.184;2022-08-19T01:39:37;19.50;99.90
7399;DHT22;3740;50.700;7.184;2022-08-19T01:42:03;19.50;99.90
7399;DHT22;3740;50.700;7.184;2022-08-19T01:44:30;19.50;99.90
7399;DHT22;3740;50.700;7.184;2022-08-19T01:46:55;19.50;99.90
7399;DHT22;3740;50.700;7.184;2022-08-19T01:49:24;19.50;99.90
7399;DHT22;3740;50.700;7.184;2022-08-19T01:51:52;19.40;99.90
7399;DHT22;3740;50.700;7.184;2022-08-19T01:54:20;19.30;99.90
7399;DHT22;3740;50.700;7.184;2022-08-19T01:56:46;19.40;99.90
7399;DHT22;3740;50.700;7.184;2022-08-19T01:59:17;19.40;99.90
7399;DHT22;3740;50.700;7.184;2022-08-19T02:01:44;19.40;99.90
7399;DHT22;3740;50.700;7.184;2022-08-19T02:04:10;19.40;99.90
7399;DHT22;3740;50.700;7.184;2022-08-19T02:06:36;19.50;99.90
7399;DHT22;3740;50.700;7.184;2022-08-19T02:09:02;19.50;99.90
7399;DHT22;3740;50.700;7.184;2022-08-19T02:11:32;19.40;99.90
7399;DHT22;3740;50.700;7.184;2022-08-19T02:14:00;19.40;99.90
7399;DHT22;3740;50.700;7.184;2022-08-19T02:16:27;19.40;99.90
7399;DHT22;3740;50.700;7.184;2022-08-19T02:18:53;19.40;99.90
7399;DHT22;3740;50.700;7.184;2022-08-19T02:21:22;19.40;99.90
7399;DHT22;3740;50.700;7.184;2022-08-19T02:23:48;19.40;99.90
7399;DHT22;3740;50.700;7.184;2022-08-19T02:26:15;19.30;99.90
7399;DHT22;3740;50.700;7.184;2022-08-19T02:28:41;19.30;99.90
7399;DHT22;3740;50.700;7.184;2022-08-19T02:31:16;19.30;99.90
7399;DHT22;3740;50.700;7.184;2022-08-19T02:33:42;19.30;99.90
7399;DHT22;3740;50.700;7.184;2022-08-19T02:36:09;19.30;99.90
7399;DHT22;3740;50.700;7.184;2022-08-19T02:38:36;19.40;99.90
7399;DHT22;3740;50.700;7.184;2022-08-19T02:41:25;19.30;99.90
7399;DHT22;3740;50.700;7.184;2022-08-19T02:43:51;19.20;99.90
7399;DHT22;3740;50.700;7.184;2022-08-19T02:46:19;19.30;99.90
7399;DHT22;3740;50.700;7.184;2022-08-19T02:48:51;19.20;99.90
7399;DHT22;3740;50.700;7.184;2022-08-19T02:51:30;19.20;99.90
7399;DHT22;3740;50.700;7.184;2022-08-19T02:53:57;19.20;99.90
7399;DHT22;3740;50.700;7.184;2022-08-19T02:56:22;19.20;99.90
7399;DHT22;3740;50.700;7.184;2022-08-19T02:58:50;19.20;99.90
7399;DHT22;3740;50.700;7.184;2022-08-19T03:01:34;19.20;99.90
7399;DHT22;3740;50.700;7.184;2022-08-19T03:04:02;19.20;99.90
7399;DHT22;3740;50.700;7.184;2022-08-19T03:06:29;19.20;99.90
7399;DHT22;3740;50.700;7.184;2022-08-19T03:08:55;19.20;99.90
7399;DHT22;3740;50.700;7.184;2022-08-19T03:13:49;19.10;99.90
7399;DHT22;3740;50.700;7.184;2022-08-19T03:16:20;19.10;99.90
7399;DHT22;3740;50.700;7.184;2022-08-19T03:18:46;19.10;99.90
7399;DHT22;3740;50.700;7.184;2022-08-19T03:21:24;19.10;99.90
7399;DHT22;3740;50.700;7.184;2022-08-19T03:23:53;19.10;99.90
7399;DHT22;3740;50.700;7.184;2022-08-19T03:26:18;19.00;99.90
7399;DHT22;3740;50.700;7.184;2022-08-19T03:28:45;19.00;99.90
7399;DHT22;3740;50.700;7.184;2022-08-19T03:31:16;19.10;99.90
7399;DHT22;3740;50.700;7.184;2022-08-19T03:33:42;19.00;99.90
7399;DHT22;3740;50.700;7.184;2022-08-19T03:36:15;19.00;99.90
7399;DHT22;3740;50.700;7.184;2022-08-19T03:38:47;19.00;99.90
7399;DHT22;3740;50.700;7.184;2022-08-19T03:41:25;19.00;99.90
7399;DHT22;3740;50.700;7.184;2022-08-19T03:43:52;19.00;99.90
7399;DHT22;3740;50.700;7.184;2022-08-19T03:46:26;19.00;99.90
7399;DHT22;3740;50.700;7.184;2022-08-19T03:48:54;19.00;99.90
7399;DHT22;3740;50.700;7.184;2022-08-19T03:51:28;19.00;99.90
7399;DHT22;3740;50.700;7.184;2022-08-19T03:53:56;19.00;99.90
7399;DHT22;3740;50.700;7.184;2022-08-19T03:56:22;18.90;99.90
7399;DHT22;3740;50.700;7.184;2022-08-19T03:58:50;18.90;99.90
7399;DHT22;3740;50.700;7.184;2022-08-19T04:01:19;18.90;99.90
7399;DHT22;3740;50.700;7.184;2022-08-19T04:03:46;18.90;99.90
7399;DHT22;3740;50.700;7.184;2022-08-19T04:06:28;18.90;99.90
7399;DHT22;3740;50.700;7.184;2022-08-19T04:08:55;18.90;99.90
7399;DHT22;3740;50.700;7.184;2022-08-19T04:11:28;18.80;99.90
7399;DHT22;3740;50.700;7.184;2022-08-19T04:13:55;18.80;99.90
7399;DHT22;3740;50.700;7.184;2022-08-19T04:16:25;18.80;99.90
7399;DHT22;3740;50.700;7.184;2022-08-19T04:19:00;18.80;99.90
7399;DHT22;3740;50.700;7.184;2022-08-19T04:21:27;18.90;99.90
7399;DHT22;3740;50.700;7.184;2022-08-19T04:23:56;18.90;99.90
7399;DHT22;3740;50.700;7.184;2022-08-19T04:26:25;18.90;99.90
7399;DHT22;3740;50.700;7.184;2022-08-19T04:28:51;18.90;99.90
7399;DHT22;3740;50.700;7.184;2022-08-19T04:31:20;18.90;99.90
7399;DHT22;3740;50.700;7.184;2022-08-19T04:33:46;18.80;99.90
7399;DHT22;3740;50.700;7.184;2022-08-19T04:36:23;18.80;99.90
7399;DHT22;3740;50.700;7.184;2022-08-19T04:38:52;18.80;99.90
7399;DHT22;3740;50.700;7.184;2022-08-19T04:41:18;18.80;99.90
7399;DHT22;3740;50.700;7.184;2022-08-19T04:44:03;18.70;99.90
7399;DHT22;3740;50.700;7.184;2022-08-19T04:46:30;18.70;99.90
7399;DHT22;3740;50.700;7.184;2022-08-19T04:49:00;18.70;99.90
7399;DHT22;3740;50.700;7.184;2022-08-19T04:51:27;18.70;99.90
7399;DHT22;3740;50.700;7.184;2022-08-19T04:53:53;18.70;99.90
7399;DHT22;3740;50.700;7.184;2022-08-19T04:56:20;18.70;99.90
7399;DHT22;3740;50.700;7.184;2022-08-19T04:58:53;18.70;99.90
7399;DHT22;3740;50.700;7.184;2022-08-19T05:01:25;18.70;99.90
7399;DHT22;3740;50.700;7.184;2022-08-19T05:03:51;18.70;99.90
7399;DHT22;3740;50.700;7.184;2022-08-19T05:06:19;18.80;99.90
7399;DHT22;3740;50.700;7.184;2022-08-19T05:08:46;18.70;99.90
7399;DHT22;3740;50.700;7.184;2022-08-19T05:11:24;18.80;99.90
7399;DHT22;3740;50.700;7.184;2022-08-19T05:13:49;18.80;99.90
7399;DHT22;3740;50.700;7.184;2022-08-19T05:16:17;18.80;99.90
7399;DHT22;3740;50.700;7.184;2022-08-19T05:18:44;18.80;99.90
7399;DHT22;3740;50.700;7.184;2022-08-19T05:21:31;18.80;99.90
7399;DHT22;3740;50.700;7.184;2022-08-19T05:24:15;18.90;99.90
7399;DHT22;3740;50.700;7.184;2022-08-19T05:26:43;18.90;99.90
7399;DHT22;3740;50.700;7.184;2022-08-19T05:29:12;18.90;99.90
7399;DHT22;3740;50.700;7.184;2022-08-19T05:31:38;18.90;99.90
7399;DHT22;3740;50.700;7.184;2022-08-19T05:34:04;18.90;99.90
7399;DHT22;3740;50.700;7.184;2022-08-19T05:36:36;18.90;99.90
7399;DHT22;3740;50.700;7.184;2022-08-19T05:39:05;19.00;99.90
7399;DHT22;3740;50.700;7.184;2022-08-19T05:41:31;19.00;99.90
7399;DHT22;3740;50.700;7.184;2022-08-19T05:43:58;19.00;99.90
7399;DHT22;3740;50.700;7.184;2022-08-19T05:46:26;19.00;99.90
7399;DHT22;3740;50.700;7.184;2022-08-19T05:48:51;19.10;99.90
7399;DHT22;3740;50.700;7.184;2022-08-19T05:51:17;19.10;99.90
7399;DHT22;3740;50.700;7.184;2022-08-19T05:53:43;19.10;99.90
7399;DHT22;3740;50.700;7.184;2022-08-19T05:56:15;19.20;99.90
7399;DHT22;3740;50.700;7.184;2022-08-19T05:58:42;19.20;99.90
7399;DHT22;3740;50.700;7.184;2022-08-19T06:01:12;19.20;99.90
7399;DHT22;3740;50.700;7.184;2022-08-19T06:03:38;19.20;99.90
7399;DHT22;3740;50.700;7.184;2022-08-19T06:06:06;19.30;99.90
7399;DHT22;3740;50.700;7.184;2022-08-19T06:08:34;19.30;99.90
7399;DHT22;3740;50.700;7.184;2022-08-19T06:14:14;19.40;99.90
7399;DHT22;3740;50.700;7.184;2022-08-19T06:16:41;19.50;99.90
7399;DHT22;3740;50.700;7.184;2022-08-19T06:19:10;19.50;99.90
7399;DHT22;3740;50.700;7.184;2022-08-19T06:21:40;19.60;99.90
7399;DHT22;3740;50.700;7.184;2022-08-19T06:24:08;19.70;99.90
7399;DHT22;3740;50.700;7.184;2022-08-19T06:26:36;19.70;99.90
7399;DHT22;3740;50.700;7.184;2022-08-19T06:29:07;19.80;99.90
7399;DHT22;3740;50.700;7.184;2022-08-19T06:31:34;19.80;99.90
7399;DHT22;3740;50.700;7.184;2022-08-19T06:34:03;19.90;99.90
7399;DHT22;3740;50.700;7.184;2022-08-19T06:36:32;20.10;99.90
7399;DHT22;3740;50.700;7.184;2022-08-19T06:39:00;20.00;99.90
7399;DHT22;3740;50.700;7.184;2022-08-19T06:41:27;20.30;99.90
7399;DHT22;3740;50.700;7.184;2022-08-19T06:43:54;20.30;99.90
7399;DHT22;3740;50.700;7.184;2022-08-19T06:46:20;20.30;99.90
7399;DHT22;3740;50.700;7.184;2022-08-19T06:48:47;20.40;99.90
7399;DHT22;3740;50.700;7.184;2022-08-19T06:51:15;20.50;99.90
7399;DHT22;3740;50.700;7.184;2022-08-19T06:53:44;20.50;99.90
7399;DHT22;3740;50.700;7.184;2022-08-19T06:56:13;20.60;99.90
7399;DHT22;3740;50.700;7.184;2022-08-19T06:58:38;20.60;99.90
7399;DHT22;3740;50.700;7.184;2022-08-19T07:01:04;20.60;99.90
7399;DHT22;3740;50.700;7.184;2022-08-19T07:03:32;20.70;99.90
7399;DHT22;3740;50.700;7.184;2022-08-19T07:06:09;20.70;99.90
7399;DHT22;3740;50.700;7.184;2022-08-19T07:08:36;20.80;99.90
7399;DHT22;3740;50.700;7.184;2022-08-19T07:11:06;20.90;99.90
7399;DHT22;3740;50.700;7.184;2022-08-19T07:13:33;20.80;99.90
7399;DHT22;3740;50.700;7.184;2022-08-19T07:16:07;20.90;99.90
7399;DHT22;3740;50.700;7.184;2022-08-19T07:18:34;20.90;99.90
7399;DHT22;3740;50.700;7.184;2022-08-19T07:21:10;21.00;99.90
7399;DHT22;3740;50.700;7.184;2022-08-19T07:23:36;21.00;99.90
7399;DHT22;3740;50.700;7.184;2022-08-19T07:26:23;21.10;99.90
7399;DHT22;3740;50.700;7.184;2022-08-19T07:28:50;21.10;99.90
7399;DHT22;3740;50.700;7.184;2022-08-19T07:31:19;21.20;99.90
7399;DHT22;3740;50.700;7.184;2022-08-19T07:33:46;21.20;99.90
7399;DHT22;3740;50.700;7.184;2022-08-19T07:36:14;21.20;99.90
7399;DHT22;3740;50.700;7.184;2022-08-19T07:38:41;21.30;99.90
7399;DHT22;3740;50.700;7.184;2022-08-19T07:41:13;21.30;99.90
7399;DHT22;3740;50.700;7.184;2022-08-19T07:43:42;21.30;99.90
7399;DHT22;3740;50.700;7.184;2022-08-19T07:46:10;21.30;99.90
7399;DHT22;3740;50.700;7.184;2022-08-19T07:48:35;21.40;99.90
7399;DHT22;3740;50.700;7.184;2022-08-19T07:51:07;21.50;99.90
7399;DHT22;3740;50.700;7.184;2022-08-19T07:53:34;21.50;99.90
7399;DHT22;3740;50.700;7.184;2022-08-19T07:56:01;21.60;99.90
7399;DHT22;3740;50.700;7.184;2022-08-19T07:58:36;21.60;99.90
7399;DHT22;3740;50.700;7.184;2022-08-19T08:01:04;21.60;99.90
7399;DHT22;3740;50.700;7.184;2022-08-19T08:03:30;21.70;99.90
7399;DHT22;3740;50.700;7.184;2022-08-19T08:06:15;21.70;99.90
7399;DHT22;3740;50.700;7.184;2022-08-19T08:09:02;21.70;99.90
7399;DHT22;3740;50.700;7.184;2022-08-19T08:11:48;21.80;99.90
7399;DHT22;3740;50.700;7.184;2022-08-19T08:14:24;21.70;99.90
7399;DHT22;3740;50.700;7.184;2022-08-19T08:16:52;21.80;99.90
7399;DHT22;3740;50.700;7.184;2022-08-19T08:19:20;21.80;99.90
7399;DHT22;3740;50.700;7.184;2022-08-19T08:21:48;21.70;99.90
7399;DHT22;3740;50.700;7.184;2022-08-19T08:24:14;21.70;99.90
7399;DHT22;3740;50.700;7.184;2022-08-19T08:26:40;21.80;99.90
7399;DHT22;3740;50.700;7.184;2022-08-19T08:29:06;21.80;99.90
7399;DHT22;3740;50.700;7.184;2022-08-19T08:31:37;21.80;99.90
7399;DHT22;3740;50.700;7.184;2022-08-19T08:34:03;21.90;99.90
7399;DHT22;3740;50.700;7.184;2022-08-19T08:36:28;21.90;99.90
7399;DHT22;3740;50.700;7.184;2022-08-19T08:38:54;22.00;99.90
7399;DHT22;3740;50.700;7.184;2022-08-19T08:41:58;22.10;99.90
7399;DHT22;3740;50.700;7.184;2022-08-19T08:44:56;22.20;99.90
7399;DHT22;3740;50.700;7.184;2022-08-19T08:47:25;22.30;99.90
7399;DHT22;3740;50.700;7.184;2022-08-19T08:49:55;22.40;99.90
7399;DHT22;3740;50.700;7.184;2022-08-19T08:52:31;22.50;99.90
7399;DHT22;3740;50.700;7.184;2022-08-19T08:55:27;22.60;99.90
7399;DHT22;3740;50.700;7.184;2022-08-19T08:58:01;22.80;99.90
7399;DHT22;3740;50.700;7.184;2022-08-19T09:00:33;22.90;99.90
7399;DHT22;3740;50.700;7.184;2022-08-19T09:03:01;23.10;99.90
7399;DHT22;3740;50.700;7.184;2022-08-19T09:05:41;23.00;99.90
7399;DHT22;3740;50.700;7.184;2022-08-19T09:10:55;23.20;99.90
7399;DHT22;3740;50.700;7.184;2022-08-19T09:13:37;23.20;99.90
7399;DHT22;3740;50.700;7.184;2022-08-19T09:16:19;23.20;99.90
7399;DHT22;3740;50.700;7.184;2022-08-19T09:18:50;23.10;99.90
7399;DHT22;3740;50.700;7.184;2022-08-19T09:21:19;23.10;99.90
7399;DHT22;3740;50.700;7.184;2022-08-19T09:23:46;23.10;99.90
7399;DHT22;3740;50.700;7.184;2022-08-19T09:26:15;23.10;99.90
7399;DHT22;3740;50.700;7.184;2022-08-19T09:28:42;23.10;99.90
7399;DHT22;3740;50.700;7.184;2022-08-19T09:31:28;23.20;99.90
7399;DHT22;3740;50.700;7.184;2022-08-19T09:33:55;23.20;99.90
7399;DHT22;3740;50.700;7.184;2022-08-19T09:36:24;23.30;99.90
7399;DHT22;3740;50.700;7.184;2022-08-19T09:38:51;23.30;99.90
7399;DHT22;3740;50.700;7.184;2022-08-19T09:41:21;23.40;99.90
7399;DHT22;3740;50.700;7.184;2022-08-19T09:43:49;23.50;99.90
7399;DHT22;3740;50.700;7.184;2022-08-19T09:46:18;23.60;99.90
7399;DHT22;3740;50.700;7.184;2022-08-19T09:48:46;23.80;99.90
7399;DHT22;3740;50.700;7.184;2022-08-19T09:51:15;23.90;99.90
7399;DHT22;3740;50.700;7.184;2022-08-19T09:53:45;24.20;99.90
7399;DHT22;3740;50.700;7.184;2022-08-19T09:56:11;24.20;99.90
7399;DHT22;3740;50.700;7.184;2022-08-19T09:58:37;24.30;99.90
7399;DHT22;3740;50.700;7.184;2022-08-19T10:01:05;24.50;99.90
7399;DHT22;3740;50.700;7.184;2022-08-19T10:03:32;24.50;99.90
7399;DHT22;3740;50.700;7.184;2022-08-19T10:06:00;24.60;99.90
7399;DHT22;3740;50.700;7.184;2022-08-19T10:08:29;24.70;99.90
7399;DHT22;3740;50.700;7.184;2022-08-19T10:10:56;24.80;99.90
7399;DHT22;3740;50.700;7.184;2022-08-19T10:13:24;24.90;99.90
7399;DHT22;3740;50.700;7.184;2022-08-19T10:15:53;25.00;99.90
7399;DHT22;3740;50.700;7.184;2022-08-19T10:18:20;25.10;99.90
7399;DHT22;3740;50.700;7.184;2022-08-19T10:20:47;25.10;99.90
7399;DHT22;3740;50.700;7.184;2022-08-19T10:23:14;25.30;99.90
7399;DHT22;3740;50.700;7.184;2022-08-19T10:25:44;25.30;99.90
7399;DHT22;3740;50.700;7.184;2022-08-19T10:28:09;25.40;99.90
7399;DHT22;3740;50.700;7.184;2022-08-19T10:30:39;25.60;99.90
7399;DHT22;3740;50.700;7.184;2022-08-19T10:33:05;25.70;99.90
7399;DHT22;3740;50.700;7.184;2022-08-19T10:35:32;25.80;99.90
7399;DHT22;3740;50.700;7.184;2022-08-19T10:37:58;25.90;99.90
7399;DHT22;3740;50.700;7.184;2022-08-19T10:40:26;26.00;99.90
7399;DHT22;3740;50.700;7.184;2022-08-19T10:42:53;26.10;99.90
7399;DHT22;3740;50.700;7.184;2022-08-19T10:45:21;26.40;99.90
7399;DHT22;3740;50.700;7.184;2022-08-19T10:47:50;26.60;99.90
7399;DHT22;3740;50.700;7.184;2022-08-19T10:50:15;27.10;99.90
7399;DHT22;3740;50.700;7.184;2022-08-19T10:53:07;27.70;99.90
7399;DHT22;3740;50.700;7.184;2022-08-19T10:55:36;28.50;98.40
7399;DHT22;3740;50.700;7.184;2022-08-19T10:58:21;28.50;96.10
7399;DHT22;3740;50.700;7.184;2022-08-19T11:00:52;28.50;96.20
7399;DHT22;3740;50.700;7.184;2022-08-19T11:03:18;28.40;96.50
7399;DHT22;3740;50.700;7.184;2022-08-19T11:05:44;29.60;95.60
7399;DHT22;3740;50.700;7.184;2022-08-19T11:08:09;31.20;92.60
7399;DHT22;3740;50.700;7.184;2022-08-19T11:10:42;32.80;86.40
7399;DHT22;3740;50.700;7.184;2022-08-19T11:13:08;34.40;81.30
7399;DHT22;3740;50.700;7.184;2022-08-19T11:15:33;35.40;77.40
7399;DHT22;3740;50.700;7.184;2022-08-19T11:17:59;36.20;72.20
7399;DHT22;3740;50.700;7.184;2022-08-19T11:20:25;36.30;70.70
7399;DHT22;3740;50.700;7.184;2022-08-19T11:22:52;36.30;68.30
7399;DHT22;3740;50.700;7.184;2022-08-19T11:25:19;37.00;68.50
7399;DHT22;3740;50.700;7.184;2022-08-19T11:27:45;37.00;65.00
7399;DHT22;3740;50.700;7.184;2022-08-19T11:30:12;37.20;64.30
7399;DHT22;3740;50.700;7.184;2022-08-19T11:32:39;35.60;66.10
7399;DHT22;3740;50.700;7.184;2022-08-19T11:35:05;33.70;68.40
7399;DHT22;3740;50.700;7.184;2022-08-19T11:37:31;33.30;70.20
7399;DHT22;3740;50.700;7.184;2022-08-19T11:39:57;34.10;69.90
7399;DHT22;3740;50.700;7.184;2022-08-19T11:42:22;34.80;67.50
7399;DHT22;3740;50.700;7.184;2022-08-19T11:45:07;35.80;65.20
7399;DHT22;3740;50.700;7.184;2022-08-19T11:47:33;37.30;63.70
7399;DHT22;3740;50.700;7.184;2022-08-19T11:49:58;38.50;60.70
7399;DHT22;3740;50.700;7.184;2022-08-19T11:52:24;38.70;59.30
7399;DHT22;3740;50.700;7.184;2022-08-19T11:54:50;38.90;57.80
7399;DHT22;3740;50.700;7.184;2022-08-19T11:57:16;39.20;57.90
7399;DHT22;3740;50.700;7.184;2022-08-19T11:59:47;38.70;57.30
7399;DHT22;3740;50.700;7.184;2022-08-19T12:02:13;37.40;57.30
7399;DHT22;3740;50.700;7.184;2022-08-19T12:04:42;36.20;59.00
7399;DHT22;3740;50.700;7.184;2022-08-19T12:07:07;36.80;58.00
7399;DHT22;3740;50.700;7.184;2022-08-19T12:09:33;36.80;57.80
7399;DHT22;3740;50.700;7.184;2022-08-19T12:12:00;36.70;58.30
7399;DHT22;3740;50.700;7.184;2022-08-19T12:14:27;37.80;57.10
7399;DHT22;3740;50.700;7.184;2022-08-19T12:16:55;37.90;56.30
7399;DHT22;3740;50.700;7.184;2022-08-19T12:19:21;37.60;56.90
7399;DHT22;3740;50.700;7.184;2022-08-19T12:21:46;37.80;56.20
7399;DHT22;3740;50.700;7.184;2022-08-19T12:24:13;37.10;56.50
7399;DHT22;3740;50.700;7.184;2022-08-19T12:26:38;36.30;57.80
7399;DHT22;3740;50.700;7.184;2022-08-19T12:29:04;36.80;57.10
7399;DHT22;3740;50.700;7.184;2022-08-19T12:31:31;37.30;56.60
7399;DHT22;3740;50.700;7.184;2022-08-19T12:33:58;37.90;55.70
7399;DHT22;3740;50.700;7.184;2022-08-19T12:36:24;38.00;55.60
7399;DHT22;3740;50.700;7.184;2022-08-19T12:38:51;38.10;55.60
7399;DHT22;3740;50.700;7.184;2022-08-19T12:41:17;38.30;55.30
7399;DHT22;3740;50.700;7.184;2022-08-19T12:43:44;37.60;54.70
7399;DHT22;3740;50.700;7.184;2022-08-19T12:46:11;37.20;54.90
7399;DHT22;3740;50.700;7.184;2022-08-19T12:48:40;38.00;55.40
7399;DHT22;3740;50.700;7.184;2022-08-19T12:51:12;38.50;53.30
7399;DHT22;3740;50.700;7.184;2022-08-19T12:53:39;38.50;53.50
7399;DHT22;3740;50.700;7.184;2022-08-19T12:56:06;38.80;52.70
7399;DHT22;3740;50.700;7.184;2022-08-19T12:58:32;39.10;51.90
7399;DHT22;3740;50.700;7.184;2022-08-19T13:01:05;39.10;52.00
7399;DHT22;3740;50.700;7.184;2022-08-19T13:03:30;39.80;51.10
7399;DHT22;3740;50.700;7.184;2022-08-19T13:05:56;40.00;51.20
7399;DHT22;3740;50.700;7.184;2022-08-19T13:08:22;40.00;51.00
7399;DHT22;3740;50.700;7.184;2022-08-19T13:10:48;39.60;50.40
7399;DHT22;3740;50.700;7.184;2022-08-19T13:13:13;39.90;51.00
7399;DHT22;3740;50.700;7.184;2022-08-19T13:15:41;40.00;50.40
7399;DHT22;3740;50.700;7.184;2022-08-19T13:18:09;39.50;51.20
7399;DHT22;3740;50.700;7.184;2022-08-19T13:20:38;39.40;51.90
7399;DHT22;3740;50.700;7.184;2022-08-19T13:23:06;39.60;51.50
7399;DHT22;3740;50.700;7.184;2022-08-19T13:25:32;39.70;51.00
7399;DHT22;3740;50.700;7.184;2022-08-19T13:27:58;38.70;51.60
7399;DHT22;3740;50.700;7.184;2022-08-19T13:30:24;37.80;52.70
7399;DHT22;3740;50.700;7.184;2022-08-19T13:33:08;37.90;52.20
7399;DHT22;3740;50.700;7.184;2022-08-19T13:35:49;37.10;52.50
7399;DHT22;3740;50.700;7.184;2022-08-19T13:38:18;37.30;52.70
7399;DHT22;3740;50.700;7.184;2022-08-19T13:40:45;37.10;52.00
7399;DHT22;3740;50.700;7.184;2022-08-19T13:43:11;36.90;52.40
7399;DHT22;3740;50.700;7.184;2022-08-19T13:45:37;36.80;51.40
7399;DHT22;3740;50.700;7.184;2022-08-19T13:48:07;37.30;50.70
7399;DHT22;3740;50.700;7.184;2022-08-19T13:50:38;37.00;51.20
7399;DHT22;3740;50.700;7.184;2022-08-19T13:53:03;36.20;51.60
7399;DHT22;3740;50.700;7.184;2022-08-19T13:55:29;36.70;51.40
7399;DHT22;3740;50.700;7.184;2022-08-19T13:57:57;36.90;51.90
7399;DHT22;3740;50.700;7.184;2022-08-19T14:00:28;36.60;51.80
7399;DHT22;3740;50.700;7.184;2022-08-19T14:02:56;36.20;52.20
7399;DHT22;3740;50.700;7.184;2022-08-19T14:05:26;36.20;52.70
7399;DHT22;3740;50.700;7.184;2022-08-19T14:07:52;35.70;53.10
7399;DHT22;3740;50.700;7.184;2022-08-19T14:10:19;35.20;54.40
7399;DHT22;3740;50.700;7.184;2022-08-19T14:12:45;35.50;54.40
7399;DHT22;3740;50.700;7.184;2022-08-19T14:15:12;35.40;54.80
7399;DHT22;3740;50.700;7.184;2022-08-19T14:17:39;35.20;55.40
7399;DHT22;3740;50.700;7.184;2022-08-19T14:20:06;34.90;55.10
7399;DHT22;3740;50.700;7.184;2022-08-19T14:22:40;34.40;55.10
7399;DHT22;3740;50.700;7.184;2022-08-19T14:25:08;33.90;55.30
7399;DHT22;3740;50.700;7.184;2022-08-19T14:27:35;33.40;55.50
7399;DHT22;3740;50.700;7.184;2022-08-19T14:30:02;32.80;56.40
7399;DHT22;3740;50.700;7.184;2022-08-19T14:32:29;32.40;56.40
7399;DHT22;3740;50.700;7.184;2022-08-19T14:34:55;32.00;56.80
7399;DHT22;3740;50.700;7.184;2022-08-19T14:37:21;31.40;57.90
7399;DHT22;3740;50.700;7.184;2022-08-19T14:39:48;31.00;58.00
7399;DHT22;3740;50.700;7.184;2022-08-19T14:42:13;30.70;58.60
7399;DHT22;3740;50.700;7.184;2022-08-19T14:44:41;30.60;58.90
7399;DHT22;3740;50.700;7.184;2022-08-19T14:47:09;30.30;59.60
7399;DHT22;3740;50.700;7.184;2022-08-19T14:49:38;30.30;60.40
7399;DHT22;3740;50.700;7.184;2022-08-19T14:52:05;29.90;60.60
7399;DHT22;3740;50.700;7.184;2022-08-19T14:54:31;29.80;61.40
7399;DHT22;3740;50.700;7.184;2022-08-19T14:56:56;29.90;61.10
7399;DHT22;3740;50.700;7.184;2022-08-19T14:59:25;30.10;61.10
7399;DHT22;3740;50.700;7.184;2022-08-19T15:01:51;30.30;61.30
7399;DHT22;3740;50.700;7.184;2022-08-19T15:04:16;30.10;62.20
7399;DHT22;3740;50.700;7.184;2022-08-19T15:06:42;30.20;61.20
7399;DHT22;3740;50.700;7.184;2022-08-19T15:09:09;29.90;61.20
7399;DHT22;3740;50.700;7.184;2022-08-19T15:11:40;29.80;61.60
7399;DHT22;3740;50.700;7.184;2022-08-19T15:14:05;29.70;61.60
7399;DHT22;3740;50.700;7.184;2022-08-19T15:16:31;29.30;62.50
7399;DHT22;3740;50.700;7.184;2022-08-19T15:18:58;29.30;63.00
7399;DHT22;3740;50.700;7.184;2022-08-19T15:21:26;29.10;62.30
7399;DHT22;3740;50.700;7.184;2022-08-19T15:23:52;29.10;62.20
7399;DHT22;3740;50.700;7.184;2022-08-19T15:26:19;29.00;62.10
7399;DHT22;3740;50.700;7.184;2022-08-19T15:28:45;28.90;63.40
7399;DHT22;3740;50.700;7.184;2022-08-19T15:31:12;28.70;64.60
7399;DHT22;3740;50.700;7.184;2022-08-19T15:33:38;28.90;64.80
7399;DHT22;3740;50.700;7.184;2022-08-19T15:36:07;28.90;64.10
7399;DHT22;3740;50.700;7.184;2022-08-19T15:38:33;28.70;63.60
7399;DHT22;3740;50.700;7.184;2022-08-19T15:41:03;28.60;63.60
7399;DHT22;3740;50.700;7.184;2022-08-19T15:44:08;28.50;64.60
7399;DHT22;3740;50.700;7.184;2022-08-19T15:46:36;28.30;64.70
7399;DHT22;3740;50.700;7.184;2022-08-19T15:49:03;28.20;64.40
7399;DHT22;3740;50.700;7.184;2022-08-19T15:51:31;28.10;63.90
7399;DHT22;3740;50.700;7.184;2022-08-19T15:54:01;28.00;64.70
7399;DHT22;3740;50.700;7.184;2022-08-19T15:56:29;28.00;64.10
7399;DHT22;3740;50.700;7.184;2022-08-19T15:59:14;27.90;64.30
7399;DHT22;3740;50.700;7.184;2022-08-19T16:01:58;27.70;63.50
7399;DHT22;3740;50.700;7.184;2022-08-19T16:04:42;27.90;64.70
7399;DHT22;3740;50.700;7.184;2022-08-19T16:07:29;28.00;63.50
7399;DHT22;3740;50.700;7.184;2022-08-19T16:09:55;28.00;64.70
7399;DHT22;3740;50.700;7.184;2022-08-19T16:12:20;28.10;65.60
7399;DHT22;3740;50.700;7.184;2022-08-19T16:14:52;27.90;66.50
7399;DHT22;3740;50.700;7.184;2022-08-19T16:17:17;28.00;66.40
7399;DHT22;3740;50.700;7.184;2022-08-19T16:19:43;27.90;65.70
7399;DHT22;3740;50.700;7.184;2022-08-19T16:22:09;27.80;66.40
7399;DHT22;3740;50.700;7.184;2022-08-19T16:24:35;27.60;66.20